Time;durP1;ratioP1;P1;durP2;ratioP2;P2;SDS_P1;SDS_P2;PMS_P1;PMS_P2;Temp;Humidity;BMP_temperature;BMP_pressure;BME280_temperature;BME280_humidity;BME280_pressure;Samples;Min_cycle;Max_cycle;Signal;HPM_P1;HPM_P2
2022/01/08 00:00:27;;;;;;;12.20;6.10;;;9.70;82.50;;;;;;5019827;28;20494;-65
2022/01/08 00:02:54;;;;;;;11.60;5.45;;;9.70;82.30;;;;;;5031542;28;20387;-64
2022/01/08 00:05:20;;;;;;;10.93;6.13;;;9.70;82.30;;;;;;5014379;28;20112;-65
2022/01/08 00:07:47;;;;;;;8.90;5.15;;;9.80;82.80;;;;;;5013704;28;20026;-65
2022/01/08 00:10:12;;;;;;;11.65;4.63;;;9.90;82.50;;;;;;5032497;28;20021;-65
2022/01/08 00:12:38;;;;;;;9.80;4.38;;;9.90;81.40;;;;;;5033253;28;20386;-65
2022/01/08 00:15:06;;;;;;;11.05;4.28;;;9.90;81.40;;;;;;5033882;28;20029;-65
2022/01/08 00:17:32;;;;;;;8.35;3.55;;;9.80;81.80;;;;;;5033205;28;20025;-65
2022/01/08 00:19:58;;;;;;;9.10;3.30;;;9.80;82.00;;;;;;5034122;28;20053;-63
2022/01/08 00:22:23;;;;;;;9.45;3.05;;;9.70;82.10;;;;;;5033872;28;20482;-65
2022/01/08 00:24:52;;;;;;;5.45;2.65;;;9.70;82.30;;;;;;5034512;28;20030;-65
2022/01/08 00:27:21;;;;;;;6.47;3.00;;;9.60;82.30;;;;;;5034296;28;20022;-65
2022/01/08 00:29:48;;;;;;;6.32;2.95;;;9.60;82.30;;;;;;5033989;28;20031;-65
2022/01/08 00:32:14;;;;;;;6.43;2.22;;;9.60;82.30;;;;;;5034011;28;20378;-64
2022/01/08 00:34:41;;;;;;;10.32;3.47;;;9.60;82.40;;;;;;5034111;28;20021;-66
2022/01/08 00:37:06;;;;;;;11.65;2.10;;;9.60;82.30;;;;;;5033968;28;20498;-64
2022/01/08 00:39:33;;;;;;;12.20;2.70;;;9.60;82.40;;;;;;5034452;28;20091;-65
2022/01/08 00:41:58;;;;;;;7.45;2.60;;;9.60;82.40;;;;;;5034135;28;20032;-65
2022/01/08 00:44:24;;;;;;;5.65;2.42;;;9.60;82.50;;;;;;5034156;28;20034;-63
2022/01/08 00:46:49;;;;;;;6.90;2.47;;;9.60;82.60;;;;;;5033734;28;20032;-63
2022/01/08 00:49:15;;;;;;;4.70;2.47;;;9.50;82.60;;;;;;5033810;28;20093;-65
2022/01/08 00:51:41;;;;;;;7.88;3.13;;;9.50;82.80;;;;;;5033806;28;20028;-65
2022/01/08 00:54:07;;;;;;;6.45;2.03;;;9.50;82.70;;;;;;5033822;28;20025;-65
2022/01/08 00:56:32;;;;;;;6.85;1.90;;;9.50;82.90;;;;;;5033613;28;20029;-64
2022/01/08 00:58:58;;;;;;;8.02;2.22;;;9.40;82.80;;;;;;5033501;28;20033;-65
2022/01/08 01:01:24;;;;;;;6.18;2.13;;;9.40;83.00;;;;;;5033519;28;20028;-65
2022/01/08 01:03:49;;;;;;;5.15;2.22;;;9.40;82.90;;;;;;5033589;28;20038;-64
2022/01/08 01:06:15;;;;;;;5.70;2.40;;;9.40;82.90;;;;;;5033538;28;20083;-64
2022/01/08 01:08:40;;;;;;;6.55;2.40;;;9.40;82.80;;;;;;5029050;28;20033;-65
2022/01/08 01:11:06;;;;;;;5.13;2.00;;;9.40;83.00;;;;;;5012450;28;20463;-65
2022/01/08 01:13:32;;;;;;;8.05;2.30;;;9.40;82.80;;;;;;5013569;28;20026;-66
2022/01/08 01:15:57;;;;;;;4.90;1.73;;;9.30;83.00;;;;;;5013687;28;20022;-65
2022/01/08 01:18:23;;;;;;;4.15;1.90;;;9.30;83.10;;;;;;5013357;28;20034;-64
2022/01/08 01:20:50;;;;;;;7.25;2.05;;;9.30;83.10;;;;;;5013645;28;20145;-65
2022/01/08 01:23:21;;;;;;;7.57;2.28;;;9.30;83.20;;;;;;5013592;28;20157;-65
2022/01/08 01:25:51;;;;;;;8.50;3.03;;;9.30;83.30;;;;;;5013756;28;20024;-65
2022/01/08 01:42:28;;;;;;;5.38;2.33;;;9.20;83.90;;;;;;5011588;28;20041;-65
2022/01/08 01:47:32;;;;;;;8.10;2.90;;;9.20;83.80;;;;;;5013159;28;20089;-65
2022/01/08 01:49:58;;;;;;;5.70;2.80;;;9.20;84.00;;;;;;5013330;28;20175;-65
2022/01/08 01:52:23;;;;;;;11.23;3.25;;;9.10;84.00;;;;;;5012441;28;20475;-65
2022/01/08 01:54:49;;;;;;;8.48;2.97;;;9.20;84.20;;;;;;5013227;28;20022;-65
2022/01/08 01:57:16;;;;;;;5.10;2.50;;;9.20;84.20;;;;;;5012857;28;20080;-65
2022/01/08 01:59:42;;;;;;;11.63;3.22;;;9.20;84.10;;;;;;5013362;28;20018;-65
2022/01/08 02:02:09;;;;;;;9.13;3.15;;;9.10;84.10;;;;;;5012983;28;20061;-65
2022/01/08 02:04:34;;;;;;;6.00;2.70;;;9.10;84.10;;;;;;5013258;28;20498;-64
2022/01/08 02:07:00;;;;;;;9.52;3.20;;;9.10;84.00;;;;;;5013329;28;20054;-65
2022/01/08 02:09:26;;;;;;;8.13;3.50;;;9.10;84.20;;;;;;5013300;28;20037;-66
2022/01/08 02:12:05;;;;;;;5.88;2.85;;;9.10;84.40;;;;;;5012975;28;20014;-66
2022/01/08 02:14:32;;;;;;;7.78;3.20;;;9.10;84.40;;;;;;5012944;28;20475;-65
2022/01/08 02:16:58;;;;;;;6.93;2.95;;;9.00;84.30;;;;;;5012924;28;20017;-65
2022/01/08 02:19:24;;;;;;;6.72;3.15;;;9.10;84.30;;;;;;5013296;28;20475;-65
2022/01/08 02:21:58;;;;;;;12.05;3.55;;;9.00;84.30;;;;;;5012987;28;20038;-65
2022/01/08 02:24:24;;;;;;;5.63;2.63;;;9.00;84.30;;;;;;5013095;28;20030;-65
2022/01/08 02:26:50;;;;;;;7.05;2.58;;;9.00;84.20;;;;;;5012633;28;20026;-63
2022/01/08 02:29:19;;;;;;;6.15;2.67;;;9.00;84.20;;;;;;5012877;28;20383;-65
2022/01/08 02:31:53;;;;;;;7.45;2.65;;;9.00;84.20;;;;;;5013070;28;20455;-65
2022/01/08 02:34:19;;;;;;;6.38;2.95;;;8.90;84.20;;;;;;5012720;28;20061;-65
2022/01/08 02:36:44;;;;;;;7.53;2.50;;;8.90;84.20;;;;;;5012874;28;20096;-65
2022/01/08 02:39:12;;;;;;;7.25;3.03;;;8.90;84.40;;;;;;5014084;28;20148;-65
2022/01/08 02:41:39;;;;;;;12.00;3.17;;;8.90;84.40;;;;;;5016695;28;20045;-65
2022/01/08 02:44:06;;;;;;;7.68;2.83;;;8.90;84.50;;;;;;5016334;28;20113;-66
2022/01/08 02:46:32;;;;;;;9.20;3.35;;;8.90;84.40;;;;;;5016402;28;20018;-64
2022/01/08 02:48:57;;;;;;;10.27;3.30;;;8.90;84.40;;;;;;5016034;28;20545;-65
2022/01/08 02:51:24;;;;;;;8.15;3.33;;;8.90;84.50;;;;;;5016298;28;20026;-65
2022/01/08 02:53:50;;;;;;;8.38;2.90;;;8.90;84.50;;;;;;5016068;28;20471;-66
2022/01/08 02:56:17;;;;;;;7.47;2.67;;;8.90;84.40;;;;;;5016328;28;20102;-65
2022/01/08 02:58:43;;;;;;;9.32;3.20;;;8.90;84.50;;;;;;5016011;28;20062;-65
2022/01/08 03:01:08;;;;;;;7.00;2.78;;;8.80;84.60;;;;;;5016260;28;20053;-65
2022/01/08 03:03:34;;;;;;;7.93;2.83;;;8.80;84.60;;;;;;5016047;28;20030;-65
2022/01/08 03:05:59;;;;;;;8.32;3.38;;;8.80;84.70;;;;;;5016254;28;20030;-66
2022/01/08 03:08:26;;;;;;;10.00;3.17;;;8.80;84.60;;;;;;5015735;28;20088;-65
2022/01/08 03:10:55;;;;;;;5.63;2.50;;;8.80;84.40;;;;;;5015736;28;20472;-64
2022/01/08 03:13:20;;;;;;;9.68;3.28;;;8.80;84.40;;;;;;5015951;28;20030;-65
2022/01/08 03:15:46;;;;;;;8.95;2.85;;;8.80;84.40;;;;;;5015886;28;20037;-65
2022/01/08 03:18:11;;;;;;;7.82;2.60;;;8.80;84.40;;;;;;5016043;28;20479;-65
2022/01/08 03:20:46;;;;;;;8.80;2.75;;;8.80;84.40;;;;;;5015581;28;20049;-66
2022/01/08 03:23:17;;;;;;;7.82;3.15;;;8.80;84.50;;;;;;5015319;28;20499;-65
2022/01/08 03:25:44;;;;;;;6.97;2.75;;;8.80;84.60;;;;;;5015581;28;20506;-66
2022/01/08 03:28:11;;;;;;;9.80;2.75;;;8.70;84.60;;;;;;5015875;28;20422;-65
2022/01/08 03:30:38;;;;;;;10.23;2.65;;;8.70;84.60;;;;;;5007612;28;20377;-66
2022/01/08 03:33:04;;;;;;;6.13;2.55;;;8.70;84.60;;;;;;5004049;28;20023;-65
2022/01/08 03:35:29;;;;;;;4.25;2.10;;;8.70;84.80;;;;;;4995292;28;20027;-64
2022/01/08 03:37:55;;;;;;;6.75;2.67;;;8.70;84.70;;;;;;4994070;28;20062;-64
2022/01/08 03:40:20;;;;;;;7.95;2.78;;;8.60;84.80;;;;;;4995508;28;20045;-64
2022/01/08 03:42:46;;;;;;;7.18;2.05;;;8.70;84.70;;;;;;4995866;28;20061;-65
2022/01/08 03:45:11;;;;;;;9.60;2.33;;;8.70;84.80;;;;;;4995733;28;20113;-65
2022/01/08 03:48:06;;;;;;;6.95;2.75;;;8.60;84.60;;;;;;4995728;28;20053;-65
2022/01/08 03:50:31;;;;;;;7.95;2.78;;;8.60;84.70;;;;;;4994611;28;20030;-64
2022/01/08 03:52:57;;;;;;;5.80;2.63;;;8.60;84.70;;;;;;4995313;28;20379;-65
2022/01/08 03:55:22;;;;;;;10.10;2.95;;;8.60;84.60;;;;;;4995503;28;20448;-63
2022/01/08 03:57:48;;;;;;;6.78;2.65;;;8.60;84.70;;;;;;4995831;28;20034;-65
2022/01/08 04:00:14;;;;;;;7.40;2.50;;;8.60;84.70;;;;;;4995392;28;20353;-65
2022/01/08 04:02:40;;;;;;;7.45;2.33;;;8.60;84.70;;;;;;4995516;28;20392;-64
2022/01/08 04:05:06;;;;;;;6.45;2.22;;;8.50;84.60;;;;;;4995333;28;20038;-63
2022/01/08 04:07:31;;;;;;;7.93;2.35;;;8.50;84.70;;;;;;4995455;28;20479;-65
2022/01/08 04:09:57;;;;;;;7.47;2.30;;;8.50;84.90;;;;;;4995269;28;20026;-65
2022/01/08 04:12:33;;;;;;;9.90;2.78;;;8.50;84.90;;;;;;4995163;28;20495;-65
2022/01/08 04:15:09;;;;;;;6.43;2.33;;;8.50;84.80;;;;;;4995203;28;20038;-65
2022/01/08 04:17:35;;;;;;;8.93;2.47;;;8.50;84.80;;;;;;4995022;28;20368;-60
2022/01/08 04:20:00;;;;;;;6.20;2.10;;;8.50;84.80;;;;;;4994941;28;20034;-65
2022/01/08 04:22:27;;;;;;;6.80;2.30;;;8.50;84.90;;;;;;4994649;28;20046;-66
2022/01/08 04:24:54;;;;;;;7.50;2.55;;;8.50;85.00;;;;;;4995189;28;20029;-65
2022/01/08 04:27:20;;;;;;;6.93;2.78;;;8.50;85.00;;;;;;4994809;28;20476;-66
2022/01/08 04:29:46;;;;;;;7.85;2.63;;;8.50;85.10;;;;;;4994982;28;20022;-66
2022/01/08 04:32:11;;;;;;;12.93;3.10;;;8.50;85.10;;;;;;4994618;28;20480;-66
2022/01/08 04:34:37;;;;;;;8.65;2.60;;;8.50;85.20;;;;;;4994838;28;20030;-66
2022/01/08 04:37:03;;;;;;;9.32;2.50;;;8.40;85.20;;;;;;4994536;28;20025;-66
2022/01/08 04:39:28;;;;;;;8.43;2.67;;;8.40;85.30;;;;;;4994862;28;20050;-66
2022/01/08 04:41:54;;;;;;;8.80;2.75;;;8.40;85.40;;;;;;4994548;28;20057;-66
2022/01/08 04:44:19;;;;;;;7.15;2.35;;;8.40;85.50;;;;;;4994735;28;20038;-66
2022/01/08 04:46:45;;;;;;;7.32;3.25;;;8.40;85.50;;;;;;4994608;28;20018;-66
2022/01/08 04:49:11;;;;;;;8.23;2.65;;;8.40;85.50;;;;;;4994740;28;20041;-66
2022/01/08 04:51:36;;;;;;;5.57;2.15;;;8.40;85.60;;;;;;4994281;28;20071;-64
2022/01/08 04:54:02;;;;;;;7.35;2.53;;;8.40;85.90;;;;;;4994438;28;20092;-66
2022/01/08 04:56:28;;;;;;;7.00;2.60;;;8.40;85.90;;;;;;4993284;28;20029;-65
2022/01/08 04:58:53;;;;;;;6.53;2.47;;;8.40;86.00;;;;;;4994563;28;20033;-65
2022/01/08 05:01:19;;;;;;;5.85;2.72;;;8.40;86.00;;;;;;4994161;28;20022;-65
2022/01/08 05:03:44;;;;;;;11.73;3.15;;;8.40;86.20;;;;;;4994184;28;20038;-65
2022/01/08 05:06:10;;;;;;;6.57;2.53;;;8.40;86.30;;;;;;4993827;28;20081;-65
2022/01/08 05:08:36;;;;;;;10.48;3.10;;;8.40;86.40;;;;;;4994323;28;20026;-66
2022/01/08 05:11:02;;;;;;;8.35;3.20;;;8.40;86.50;;;;;;4994270;28;20038;-66
2022/01/08 05:13:28;;;;;;;8.68;3.55;;;8.40;86.30;;;;;;4993935;28;20022;-64
2022/01/08 05:15:54;;;;;;;8.20;3.33;;;8.40;86.40;;;;;;4994194;28;20438;-65
2022/01/08 05:18:20;;;;;;;6.97;3.25;;;8.40;86.50;;;;;;4993926;28;20080;-60
2022/01/08 05:20:55;;;;;;;6.55;3.70;;;8.40;86.40;;;;;;4993728;28;20057;-65
2022/01/08 05:23:20;;;;;;;11.55;3.85;;;8.40;86.50;;;;;;4994004;28;20520;-63
2022/01/08 05:25:46;;;;;;;11.77;4.50;;;8.40;86.40;;;;;;4993981;28;20064;-65
2022/01/08 05:28:11;;;;;;;10.82;4.18;;;8.40;86.30;;;;;;4993818;28;20353;-64
2022/01/08 05:30:37;;;;;;;11.05;4.65;;;8.40;86.40;;;;;;4993798;28;20049;-65
2022/01/08 05:33:02;;;;;;;11.55;4.70;;;8.40;86.60;;;;;;4993670;28;20416;-66
2022/01/08 05:35:28;;;;;;;9.52;4.65;;;8.30;86.50;;;;;;4993704;28;20034;-63
2022/01/08 05:37:55;;;;;;;11.10;4.38;;;8.30;86.50;;;;;;4993776;28;20022;-66
2022/01/08 05:40:22;;;;;;;7.53;4.45;;;8.30;86.70;;;;;;4993787;28;20069;-64
2022/01/08 05:42:47;;;;;;;8.00;4.70;;;8.30;86.70;;;;;;4993644;28;20033;-65
2022/01/08 05:45:13;;;;;;;10.82;5.47;;;8.30;86.80;;;;;;4993865;28;20420;-66
2022/01/08 05:47:39;;;;;;;9.98;5.63;;;8.30;86.80;;;;;;4993089;28;20034;-65
2022/01/08 05:50:06;;;;;;;12.95;6.10;;;8.30;86.80;;;;;;4993879;28;20102;-66
2022/01/08 05:52:32;;;;;;;9.70;5.55;;;8.30;86.80;;;;;;4992360;28;20534;-66
2022/01/08 05:54:58;;;;;;;13.45;6.95;;;8.30;86.90;;;;;;4993678;28;20106;-65
2022/01/08 05:57:23;;;;;;;9.18;5.82;;;8.30;87.10;;;;;;4993587;28;20023;-66
2022/01/08 05:59:49;;;;;;;9.55;6.50;;;8.30;87.10;;;;;;4993593;28;20521;-66
2022/01/08 06:02:15;;;;;;;12.88;6.47;;;8.30;87.10;;;;;;4996821;28;20030;-66
2022/01/08 06:04:40;;;;;;;11.48;6.40;;;8.30;87.10;;;;;;4993211;28;20479;-65
2022/01/08 06:07:06;;;;;;;11.82;6.75;;;8.20;87.10;;;;;;4992112;28;20037;-66
2022/01/08 06:09:31;;;;;;;13.63;6.68;;;8.30;87.20;;;;;;4993561;28;20019;-66
2022/01/08 06:11:57;;;;;;;12.05;7.35;;;8.20;87.20;;;;;;4993498;28;20486;-66
2022/01/08 06:14:23;;;;;;;14.98;7.15;;;8.20;87.30;;;;;;4995287;28;20030;-66
2022/01/08 06:16:49;;;;;;;12.60;7.53;;;8.20;87.10;;;;;;4997267;28;20105;-65
2022/01/08 06:19:16;;;;;;;11.25;6.60;;;8.20;87.10;;;;;;4997225;28;20058;-65
2022/01/08 06:21:42;;;;;;;11.63;8.02;;;8.20;87.10;;;;;;4997246;28;20019;-66
2022/01/08 06:24:08;;;;;;;12.70;7.28;;;8.20;87.10;;;;;;4997245;28;20472;-65
2022/01/08 06:26:34;;;;;;;14.88;7.88;;;8.20;87.10;;;;;;4997093;28;20029;-65
2022/01/08 06:29:00;;;;;;;13.10;7.55;;;8.20;87.10;;;;;;4997196;28;20034;-66
2022/01/08 06:31:27;;;;;;;10.45;7.70;;;8.20;87.20;;;;;;4996949;28;20026;-66
2022/01/08 06:33:53;;;;;;;13.48;7.65;;;8.20;87.30;;;;;;4995866;28;20365;-66
2022/01/08 06:36:19;;;;;;;12.35;7.72;;;8.20;87.40;;;;;;4997272;28;20022;-65
2022/01/08 06:38:46;;;;;;;10.40;7.53;;;8.20;87.40;;;;;;4997234;28;20058;-65
2022/01/08 06:41:12;;;;;;;15.85;8.60;;;8.20;87.40;;;;;;4997171;28;20018;-65
2022/01/08 06:43:37;;;;;;;14.25;8.00;;;8.20;87.50;;;;;;4996966;28;20560;-65
2022/01/08 06:46:03;;;;;;;13.23;7.63;;;8.20;87.50;;;;;;4996884;28;20026;-65
2022/01/08 06:48:29;;;;;;;11.90;8.13;;;8.20;87.40;;;;;;4996677;28;20044;-65
2022/01/08 06:50:54;;;;;;;12.52;8.45;;;8.20;87.40;;;;;;4996804;28;20030;-65
2022/01/08 06:53:20;;;;;;;14.57;8.27;;;8.20;87.40;;;;;;4996729;28;20057;-65
2022/01/08 06:55:46;;;;;;;15.40;7.97;;;8.20;87.40;;;;;;4996694;28;20495;-65
2022/01/08 06:58:11;;;;;;;12.45;7.53;;;8.20;88.40;;;;;;4996516;28;20023;-60
2022/01/08 07:00:37;;;;;;;10.23;7.40;;;8.30;88.00;;;;;;4996061;28;20030;-65
2022/01/08 07:03:03;;;;;;;13.20;7.45;;;8.40;88.30;;;;;;4995267;28;20050;-65
2022/01/08 07:05:29;;;;;;;14.25;7.65;;;8.40;87.60;;;;;;4996377;28;20033;-65
2022/01/08 07:07:54;;;;;;;10.52;7.25;;;8.40;87.50;;;;;;4999212;28;20018;-65
2022/01/08 07:10:20;;;;;;;17.55;7.68;;;8.50;87.50;;;;;;5015367;28;20025;-65
2022/01/08 07:12:45;;;;;;;14.23;8.10;;;8.50;87.20;;;;;;5013700;28;20048;-65
2022/01/08 07:15:12;;;;;;;14.13;7.50;;;8.50;87.20;;;;;;5015702;28;20022;-64
2022/01/08 07:17:39;;;;;;;21.92;7.93;;;8.50;87.40;;;;;;5015932;28;20160;-64
2022/01/08 07:20:05;;;;;;;11.75;6.90;;;8.60;87.30;;;;;;5015553;28;20053;-65
2022/01/08 07:22:30;;;;;;;13.27;7.20;;;8.60;87.60;;;;;;5014961;28;20028;-65
2022/01/08 07:24:56;;;;;;;11.63;7.43;;;8.60;87.60;;;;;;5014479;28;20042;-65
2022/01/08 07:27:21;;;;;;;17.65;7.22;;;8.60;87.60;;;;;;5015067;28;20018;-65
2022/01/08 07:29:47;;;;;;;13.82;7.50;;;8.60;87.80;;;;;;5020964;28;20095;-65
2022/01/08 07:32:12;;;;;;;14.65;7.85;;;8.70;87.60;;;;;;5015224;28;20026;-65
2022/01/08 07:34:38;;;;;;;9.90;7.32;;;8.70;87.90;;;;;;5013514;28;20457;-65
2022/01/08 07:37:03;;;;;;;14.07;6.68;;;8.70;88.00;;;;;;5018310;28;20025;-64
2022/01/08 07:39:29;;;;;;;16.13;6.95;;;8.80;88.40;;;;;;5014859;28;20045;-66
2022/01/08 07:41:55;;;;;;;16.15;8.15;;;8.80;87.80;;;;;;5019697;28;20353;-65
2022/01/08 07:44:20;;;;;;;13.48;7.15;;;8.80;87.60;;;;;;5016384;28;20506;-65
2022/01/08 07:46:46;;;;;;;11.70;7.65;;;8.80;87.60;;;;;;5014649;28;20370;-65
2022/01/08 07:49:11;;;;;;;12.20;7.60;;;8.90;87.60;;;;;;5015013;28;20045;-65
2022/01/08 07:51:37;;;;;;;16.08;8.85;;;8.90;87.40;;;;;;5014484;28;20495;-63
2022/01/08 07:54:02;;;;;;;13.70;10.18;;;8.80;83.20;;;;;;5014944;28;20471;-64
2022/01/08 07:56:28;;;;;;;14.98;9.20;;;8.60;82.70;;;;;;5014876;28;20030;-65
2022/01/08 07:58:53;;;;;;;23.33;12.93;;;8.40;83.60;;;;;;5014612;28;20121;-66
2022/01/08 08:01:21;;;;;;;16.17;10.23;;;8.10;84.40;;;;;;5014626;28;20479;-63
2022/01/08 08:03:47;;;;;;;21.50;7.45;;;8.00;85.10;;;;;;5014830;28;20038;-65
2022/01/08 08:06:12;;;;;;;15.07;7.13;;;7.80;85.80;;;;;;5020368;28;20479;-65
2022/01/08 08:08:38;;;;;;;13.93;7.95;;;7.70;86.10;;;;;;5026564;28;20061;-65
2022/01/08 08:11:03;;;;;;;10.27;5.13;;;7.50;86.80;;;;;;5011673;28;20468;-65
2022/01/08 08:13:29;;;;;;;8.48;4.95;;;7.90;91.90;;;;;;5012376;28;20037;-65
2022/01/08 08:15:54;;;;;;;13.07;5.63;;;8.40;90.70;;;;;;5011979;28;20029;-63
2022/01/08 08:18:20;;;;;;;10.23;5.05;;;8.80;89.40;;;;;;5007835;28;20018;-65
2022/01/08 08:20:46;;;;;;;10.52;5.00;;;9.00;88.50;;;;;;5012308;28;20440;-64
2022/01/08 08:23:12;;;;;;;10.93;5.45;;;9.10;87.80;;;;;;5012673;28;20030;-65
2022/01/08 08:25:38;;;;;;;8.07;4.57;;;9.20;88.00;;;;;;5014488;28;20041;-65
2022/01/08 08:28:05;;;;;;;8.05;4.43;;;9.20;87.40;;;;;;5009480;28;20501;-65
2022/01/08 08:30:30;;;;;;;7.32;4.70;;;9.30;86.70;;;;;;5009757;28;20490;-65
2022/01/08 08:32:56;;;;;;;10.25;5.18;;;9.40;86.00;;;;;;5013130;28;20034;-62
2022/01/08 08:35:21;;;;;;;11.60;4.63;;;9.50;86.30;;;;;;5010771;28;20096;-65
2022/01/08 08:37:47;;;;;;;9.82;4.40;;;9.50;85.70;;;;;;5011749;28;20105;-64
2022/01/08 08:40:14;;;;;;;8.38;4.65;;;9.60;85.70;;;;;;5008955;28;20072;-62
2022/01/08 08:42:41;;;;;;;9.52;5.10;;;9.60;85.50;;;;;;5009088;28;20041;-64
2022/01/08 08:45:08;;;;;;;11.70;4.40;;;9.60;86.30;;;;;;5010488;28;20096;-64
2022/01/08 08:47:34;;;;;;;13.90;5.93;;;9.60;86.40;;;;;;5004839;28;20092;-62
2022/01/08 08:50:00;;;;;;;8.00;5.07;;;9.70;87.00;;;;;;5007921;28;20026;-63
2022/01/08 08:52:26;;;;;;;9.00;4.30;;;9.80;86.40;;;;;;5018918;28;20064;-63
2022/01/08 08:54:52;;;;;;;10.25;4.30;;;10.00;86.70;;;;;;5011184;28;20057;-64
2022/01/08 08:57:18;;;;;;;7.60;4.18;;;10.10;86.70;;;;;;5009809;28;20026;-64
2022/01/08 08:59:44;;;;;;;9.43;5.22;;;10.10;86.10;;;;;;5011850;28;20084;-65
2022/01/08 09:02:09;;;;;;;8.68;4.55;;;10.20;85.50;;;;;;5013197;28;20034;-65
2022/01/08 09:04:36;;;;;;;7.75;4.68;;;10.30;85.50;;;;;;5009717;28;20037;-65
2022/01/08 09:07:03;;;;;;;9.73;4.65;;;10.30;85.50;;;;;;5006716;28;20485;-65
2022/01/08 09:09:29;;;;;;;7.10;3.70;;;10.30;85.80;;;;;;5005571;28;20034;-64
2022/01/08 09:11:55;;;;;;;12.63;3.15;;;10.40;85.90;;;;;;5005236;28;20029;-65
2022/01/08 09:14:20;;;;;;;6.82;3.42;;;10.50;86.90;;;;;;5007589;28;20030;-66
2022/01/08 09:16:52;;;;;;;9.77;2.72;;;10.60;86.30;;;;;;5009239;28;20113;-63
2022/01/08 09:19:18;;;;;;;6.88;2.72;;;10.50;86.70;;;;;;5007262;28;20030;-64
2022/01/08 09:21:45;;;;;;;8.90;3.67;;;10.50;86.50;;;;;;5007470;28;20033;-64
2022/01/08 09:24:12;;;;;;;8.48;2.30;;;10.40;85.80;;;;;;5008623;28;20033;-63
2022/01/08 09:26:38;;;;;;;12.63;3.13;;;10.40;86.80;;;;;;5010626;28;20025;-62
2022/01/08 09:29:04;;;;;;;13.27;4.38;;;10.30;86.50;;;;;;5011736;28;20427;-65
2022/01/08 09:31:29;;;;;;;11.52;3.65;;;10.30;86.10;;;;;;5017935;28;20038;-67
2022/01/08 09:33:55;;;;;;;7.72;3.60;;;10.20;83.70;;;;;;5024288;28;20033;-66
2022/01/08 09:36:20;;;;;;;7.32;3.53;;;10.10;83.00;;;;;;5012570;28;20033;-64
2022/01/08 09:38:46;;;;;;;11.48;6.82;;;10.00;83.10;;;;;;5015651;28;20025;-66
2022/01/08 09:41:11;;;;;;;10.15;5.20;;;9.90;85.10;;;;;;5022272;28;20014;-66
2022/01/08 09:43:37;;;;;;;7.72;3.70;;;9.90;85.70;;;;;;5007031;28;20121;-65
2022/01/08 09:46:04;;;;;;;6.47;2.92;;;9.90;86.00;;;;;;5008470;28;20026;-64
2022/01/08 09:48:30;;;;;;;6.72;3.00;;;9.90;86.50;;;;;;5011468;28;20029;-65
2022/01/08 09:50:55;;;;;;;6.85;3.78;;;10.00;86.90;;;;;;5013270;28;20505;-65
2022/01/08 09:53:21;;;;;;;5.28;3.33;;;10.00;86.70;;;;;;5011189;28;20049;-65
2022/01/08 09:55:48;;;;;;;6.22;3.22;;;9.90;84.50;;;;;;5012668;28;20053;-65
2022/01/08 09:58:13;;;;;;;5.88;3.38;;;9.90;83.80;;;;;;5012166;28;20030;-64
2022/01/08 10:00:39;;;;;;;6.38;2.95;;;9.80;83.80;;;;;;5007173;28;20454;-65
2022/01/08 10:03:24;;;;;;;8.80;2.95;;;9.70;84.10;;;;;;5013569;28;20038;-66
2022/01/08 10:05:54;;;;;;;5.55;3.08;;;9.70;85.70;;;;;;5019906;28;20034;-65
2022/01/08 10:08:25;;;;;;;7.13;3.10;;;9.70;84.20;;;;;;5008668;28;20459;-63
2022/01/08 10:11:06;;;;;;;7.25;3.20;;;9.70;85.50;;;;;;5004862;28;20022;-65
2022/01/08 10:13:39;;;;;;;6.57;2.80;;;9.60;84.30;;;;;;5003819;28;20554;-61
2022/01/08 10:18:54;;;;;;;9.45;2.35;;;9.90;89.80;;;;;;5010755;28;20052;-64
2022/01/08 10:21:29;;;;;;;8.95;2.88;;;10.10;87.30;;;;;;5009011;28;20029;-64
2022/01/08 10:23:56;;;;;;;11.95;2.95;;;10.40;86.60;;;;;;5008357;28;20121;-63
2022/01/08 10:26:30;;;;;;;6.57;2.53;;;10.50;85.60;;;;;;5021503;28;20024;-64
2022/01/08 10:29:01;;;;;;;11.93;2.75;;;10.50;83.80;;;;;;5031820;28;20034;-64
2022/01/08 10:31:27;;;;;;;7.60;3.38;;;10.50;83.40;;;;;;5006220;28;20080;-63
2022/01/08 10:34:01;;;;;;;8.48;3.17;;;10.50;84.20;;;;;;5012393;28;20025;-63
2022/01/08 10:36:28;;;;;;;7.57;2.67;;;10.60;83.10;;;;;;5022859;28;20448;-63
2022/01/08 10:38:56;;;;;;;9.10;2.42;;;10.60;83.80;;;;;;5010346;28;20563;-64
2022/01/08 10:41:23;;;;;;;9.40;3.05;;;10.60;83.80;;;;;;5006715;28;20026;-65
2022/01/08 10:44:23;;;;;;;7.65;3.47;;;10.60;83.60;;;;;;5007882;28;20483;-65
2022/01/08 10:46:58;;;;;;;6.47;2.55;;;10.70;82.70;;;;;;5006669;28;20176;-64
2022/01/08 10:49:32;;;;;;;7.03;3.30;;;10.70;83.10;;;;;;5009410;28;20049;-63
2022/01/08 10:52:00;;;;;;;5.35;3.13;;;10.70;83.60;;;;;;5006466;28;20041;-64
2022/01/08 10:54:31;;;;;;;4.68;3.47;;;10.70;82.80;;;;;;5007920;28;20084;-64
2022/01/08 10:57:02;;;;;;;7.75;4.32;;;10.70;83.00;;;;;;5009270;28;20030;-63
2022/01/08 10:59:30;;;;;;;7.07;3.90;;;10.80;83.10;;;;;;5028536;28;20027;-64
2022/01/08 11:02:09;;;;;;;9.55;3.72;;;10.90;83.30;;;;;;5031590;28;20424;-64
2022/01/08 11:04:50;;;;;;;6.20;3.90;;;10.90;82.80;;;;;;5014215;28;20037;-65
2022/01/08 11:07:16;;;;;;;6.43;3.50;;;10.90;82.50;;;;;;5014616;28;20458;-63
2022/01/08 11:09:44;;;;;;;7.00;3.30;;;10.90;82.90;;;;;;5014963;28;20152;-62
2022/01/08 11:12:14;;;;;;;6.07;3.10;;;11.00;83.20;;;;;;5011988;28;20076;-63
2022/01/08 11:17:30;;;;;;;9.68;4.20;;;11.10;83.00;;;;;;5012885;28;20026;-63
2022/01/08 11:20:15;;;;;;;6.20;3.05;;;11.10;83.00;;;;;;5012101;28;20139;-61
2022/01/08 11:22:44;;;;;;;7.70;4.05;;;11.10;82.90;;;;;;5008993;28;20022;-62
2022/01/08 11:25:19;;;;;;;6.07;3.22;;;11.10;83.20;;;;;;5007840;28;20069;-62
2022/01/08 11:27:55;;;;;;;7.45;3.13;;;11.10;83.50;;;;;;5015230;28;20120;-66
2022/01/08 11:30:25;;;;;;;6.85;3.80;;;11.10;83.40;;;;;;5025290;28;20040;-60
2022/01/08 11:32:56;;;;;;;5.60;2.65;;;11.10;83.80;;;;;;5018939;28;20029;-62
2022/01/08 11:35:23;;;;;;;6.15;2.75;;;11.10;84.60;;;;;;5017705;28;20021;-62
2022/01/08 11:37:51;;;;;;;5.28;3.10;;;11.20;84.50;;;;;;5012023;28;20036;-62
2022/01/08 11:40:20;;;;;;;6.07;2.67;;;11.20;84.30;;;;;;5007033;28;20084;-62
2022/01/08 11:42:46;;;;;;;7.85;3.50;;;11.30;84.30;;;;;;5012362;28;20026;-61
2022/01/08 11:45:19;;;;;;;7.00;3.63;;;11.20;84.30;;;;;;5010571;28;20364;-61
2022/01/08 11:47:51;;;;;;;8.38;3.35;;;11.30;84.60;;;;;;5016334;28;20033;-61
2022/01/08 11:50:23;;;;;;;8.25;2.95;;;11.30;85.10;;;;;;5017287;28;20030;-63
2022/01/08 11:53:25;;;;;;;7.22;3.03;;;11.30;84.40;;;;;;5011696;28;20110;-62
2022/01/08 11:55:53;;;;;;;8.07;2.95;;;11.40;85.20;;;;;;5007784;28;20030;-60
2022/01/08 11:58:27;;;;;;;9.60;3.10;;;11.40;85.60;;;;;;5013958;28;20014;-60
2022/01/08 12:00:58;;;;;;;9.13;2.92;;;11.50;87.90;;;;;;5009536;28;20022;-60
2022/01/08 12:03:31;;;;;;;4.37;2.43;;;11.50;90.30;;;;;;5006101;28;20080;-63
2022/01/08 12:05:57;;;;;;;7.95;3.13;;;11.70;90.80;;;;;;5017878;28;20040;-62
2022/01/08 12:08:55;;;;;;;7.50;3.13;;;11.60;90.60;;;;;;5016281;28;20036;-64
2022/01/08 12:11:21;;;;;;;6.25;2.97;;;11.70;91.60;;;;;;5003754;28;20032;-63
2022/01/08 12:13:48;;;;;;;5.55;2.83;;;11.70;92.30;;;;;;5011701;28;20446;-64
2022/01/08 12:16:31;;;;;;;4.35;2.70;;;11.90;92.90;;;;;;5013914;28;20040;-63
2022/01/08 12:18:57;;;;;;;4.88;3.03;;;12.00;93.10;;;;;;5014361;28;20029;-64
2022/01/08 12:21:32;;;;;;;7.78;3.67;;;12.10;93.80;;;;;;5012038;28;20033;-63
2022/01/08 12:24:01;;;;;;;11.75;4.88;;;12.10;93.80;;;;;;5011841;28;20483;-63
2022/01/08 12:26:27;;;;;;;10.35;7.32;;;12.10;94.50;;;;;;5011473;28;20113;-62
2022/01/08 12:28:58;;;;;;;12.23;5.50;;;12.10;93.70;;;;;;5013439;28;20172;-63
2022/01/08 12:31:41;;;;;;;6.38;3.38;;;12.00;92.60;;;;;;5012499;28;20021;-63
2022/01/08 12:34:31;;;;;;;7.50;4.20;;;12.00;92.10;;;;;;5010431;28;20053;-64
2022/01/08 12:37:03;;;;;;;7.07;3.60;;;12.10;91.40;;;;;;5010877;28;20505;-63
2022/01/08 12:39:44;;;;;;;5.97;3.13;;;12.20;91.40;;;;;;5007857;28;20025;-63
2022/01/08 12:42:19;;;;;;;5.57;2.45;;;12.10;89.80;;;;;;5011269;28;20037;-63
2022/01/08 12:44:59;;;;;;;6.53;3.40;;;12.00;88.20;;;;;;5016593;28;20454;-62
2022/01/08 12:47:45;;;;;;;8.27;3.40;;;12.10;89.80;;;;;;5010727;28;20033;-63
2022/01/08 12:50:43;;;;;;;8.43;3.55;;;12.10;89.70;;;;;;5013061;28;20124;-63
2022/01/08 12:53:24;;;;;;;7.32;2.40;;;12.10;88.40;;;;;;4980558;28;20366;-64
2022/01/08 12:55:55;;;;;;;6.25;3.05;;;12.10;88.60;;;;;;5023998;28;20033;-63
2022/01/08 12:58:35;;;;;;;4.22;2.38;;;11.30;87.60;;;;;;5017091;28;20033;-63
2022/01/08 13:01:07;;;;;;;6.88;2.05;;;10.60;90.00;;;;;;5018928;28;20049;-60
2022/01/08 13:03:43;;;;;;;4.57;2.25;;;10.30;92.90;;;;;;5022961;28;20043;-62
2022/01/08 13:06:12;;;;;;;5.70;2.03;;;10.90;91.50;;;;;;5011711;28;20064;-60
2022/01/08 13:08:39;;;;;;;3.50;1.70;;;11.40;91.10;;;;;;5008673;28;20025;-63
2022/01/08 13:11:07;;;;;;;5.47;1.60;;;11.70;90.70;;;;;;5006168;28;20480;-62
2022/01/08 13:13:40;;;;;;;7.30;1.95;;;11.90;90.50;;;;;;5009709;28;20022;-62
2022/01/08 13:16:27;;;;;;;3.33;1.63;;;12.20;90.10;;;;;;5011193;28;20022;-62